createdAt,value
2016-04-03T00:00:05.650Z,0
2016-04-03T00:01:05.637Z,0
2016-04-03T00:02:05.655Z,0
2016-04-03T00:03:05.658Z,0
2016-04-03T00:04:05.645Z,0
2016-04-03T00:05:05.647Z,0
2016-04-03T00:06:05.650Z,0
2016-04-03T00:07:05.653Z,0
2016-04-03T00:08:05.672Z,0
2016-04-03T00:09:05.658Z,0
2016-04-03T00:10:05.677Z,0
2016-04-03T00:11:05.647Z,0
2016-04-03T00:12:05.650Z,0
2016-04-03T00:13:05.653Z,0
2016-04-03T00:14:05.641Z,0
2016-04-03T00:15:05.658Z,0
2016-04-03T00:16:05.661Z,0
2016-04-03T00:17:05.649Z,0
2016-04-03T00:18:05.652Z,0
2016-04-03T00:19:05.655Z,0
2016-04-03T00:20:05.547Z,0
2016-04-03T00:21:05.660Z,0
2016-04-03T00:22:05.647Z,0
2016-04-03T00:23:05.649Z,0
2016-04-03T00:24:05.652Z,0
2016-04-03T00:25:05.670Z,0
2016-04-03T00:26:05.658Z,0
2016-04-03T00:27:05.676Z,0
2016-04-03T00:28:05.648Z,0
2016-04-03T00:29:05.666Z,0
2016-04-03T00:30:05.653Z,0
2016-04-03T00:31:05.656Z,0
2016-04-03T00:32:05.658Z,0
2016-04-03T00:33:05.645Z,0
2016-04-03T00:34:05.648Z,0
2016-04-03T00:35:05.822Z,0
2016-04-03T00:36:05.637Z,0
2016-04-03T00:37:05.671Z,0
2016-04-03T00:38:05.642Z,0
2016-04-03T00:39:05.661Z,0
2016-04-03T00:40:05.648Z,0
2016-04-03T00:41:05.651Z,0
2016-04-03T00:42:05.654Z,0
2016-04-03T00:43:05.656Z,0
2016-04-03T00:44:05.644Z,0
2016-04-03T00:45:05.646Z,0
2016-04-03T00:46:05.649Z,0
2016-04-03T00:47:05.652Z,0
2016-04-03T00:48:05.654Z,0
2016-04-03T00:49:05.657Z,0
2016-04-03T00:50:05.643Z,0
2016-04-03T00:51:05.662Z,0
2016-04-03T00:52:05.680Z,0
2016-04-03T00:53:05.652Z,0
2016-04-03T00:54:05.655Z,0
2016-04-03T00:55:05.657Z,0
2016-04-03T00:56:05.660Z,0
2016-04-03T00:57:05.662Z,0
2016-04-03T00:58:05.665Z,0
2016-04-03T00:59:05.652Z,0
2016-04-03T01:00:05.654Z,0
2016-04-03T01:01:05.658Z,0
2016-04-03T01:02:05.645Z,0
2016-04-03T01:03:05.648Z,0
2016-04-03T01:04:05.651Z,0
2016-04-03T01:05:05.654Z,0
2016-04-03T01:06:05.671Z,0
2016-04-03T01:07:05.643Z,0
2016-04-03T01:08:05.500Z,0
2016-04-03T01:09:05.655Z,0
2016-04-03T01:10:05.657Z,0
2016-04-03T01:11:05.660Z,0
2016-04-03T01:12:05.663Z,0
2016-04-03T01:13:05.649Z,0
2016-04-03T01:14:05.652Z,0
2016-04-03T01:15:05.654Z,0
2016-04-03T01:16:05.674Z,0
2016-04-03T01:17:05.649Z,0
2016-04-03T01:18:05.652Z,0
2016-04-03T01:19:05.639Z,0
2016-04-03T01:20:05.657Z,0
2016-04-03T01:21:05.660Z,0
2016-04-03T01:22:05.662Z,0
2016-04-03T01:23:05.665Z,0
2016-04-03T01:24:05.636Z,0
2016-04-03T01:25:05.671Z,0
2016-04-03T01:26:05.658Z,0
2016-04-03T01:27:05.958Z,0
2016-04-03T01:28:05.647Z,0
2016-04-03T01:29:05.666Z,0
2016-04-03T01:30:05.652Z,0
2016-04-03T01:31:05.671Z,0
2016-04-03T01:32:05.658Z,0
2016-04-03T01:33:05.660Z,0
2016-04-03T01:34:05.648Z,0
2016-04-03T01:35:05.650Z,0
2016-04-03T01:36:05.653Z,0
2016-04-03T01:37:05.656Z,0
2016-04-03T01:38:05.658Z,0
2016-04-03T01:39:05.662Z,0
2016-04-03T01:40:05.648Z,0
2016-04-03T01:41:05.651Z,0
2016-04-03T01:42:05.638Z,0
2016-04-03T01:43:05.656Z,0
2016-04-03T01:44:05.644Z,0
2016-04-03T01:45:05.646Z,0
2016-04-03T01:46:05.649Z,0
2016-04-03T01:47:05.667Z,0
2016-04-03T01:48:05.655Z,0
2016-04-03T01:49:05.658Z,0
2016-04-03T01:50:05.660Z,0
2016-04-03T01:51:05.647Z,0
2016-04-03T01:52:05.649Z,0
2016-04-03T01:53:05.652Z,0
2016-04-03T01:54:05.655Z,0
2016-04-03T01:55:05.642Z,0
2016-04-03T01:56:05.660Z,0
2016-04-03T01:57:05.647Z,0
2016-04-03T01:58:05.649Z,0
2016-04-03T01:59:05.652Z,0
2016-04-03T02:00:05.655Z,0
2016-04-03T02:01:05.643Z,0
2016-04-03T02:02:05.661Z,0
2016-04-03T02:03:05.648Z,0
2016-04-03T02:04:05.651Z,0
2016-04-03T02:05:05.653Z,0
2016-04-03T02:06:05.671Z,0
2016-04-03T02:07:05.659Z,0
2016-04-03T02:08:05.666Z,0
2016-04-03T02:09:05.653Z,0
2016-04-03T02:10:05.672Z,0
2016-04-03T02:11:05.643Z,0
2016-04-03T02:12:05.662Z,0
2016-04-03T02:13:05.648Z,0
2016-04-03T02:14:05.636Z,0
2016-04-03T02:15:05.653Z,0
2016-04-03T02:16:05.656Z,0
2016-04-03T02:17:05.644Z,0
2016-04-03T02:18:05.646Z,0
2016-04-03T02:19:05.649Z,0
2016-04-03T02:20:05.666Z,0
2016-04-03T02:21:05.654Z,0
2016-04-03T02:22:05.672Z,0
2016-04-03T02:23:05.644Z,0
2016-04-03T02:24:05.647Z,0
2016-04-03T02:25:05.649Z,0
2016-04-03T02:26:05.652Z,0
2016-04-03T02:27:05.670Z,0
2016-04-03T02:28:05.641Z,0
2016-04-03T02:29:05.644Z,0
2016-04-03T02:30:05.647Z,0
2016-04-03T02:31:05.649Z,0
2016-04-03T02:32:05.668Z,0
2016-04-03T02:33:05.639Z,0
2016-04-03T02:34:05.626Z,0
2016-04-03T02:35:05.660Z,0
2016-04-03T02:36:05.648Z,0
2016-04-03T02:37:05.666Z,0
2016-04-03T02:38:05.637Z,0
2016-04-03T02:39:05.671Z,0
2016-04-03T02:40:05.642Z,0
2016-04-03T02:41:05.645Z,0
2016-04-03T02:42:05.664Z,0
2016-04-03T02:43:05.650Z,0
2016-04-03T02:44:05.669Z,0
2016-04-03T02:45:05.672Z,0
2016-04-03T02:46:05.644Z,0
2016-04-03T02:47:05.662Z,0
2016-04-03T02:48:05.649Z,0
2016-04-03T02:49:05.652Z,0
2016-04-03T02:50:05.654Z,0
2016-04-03T02:51:05.657Z,0
2016-04-03T02:52:05.659Z,0
2016-04-03T02:53:05.662Z,0
2016-04-03T02:54:05.649Z,0
2016-04-03T02:55:05.652Z,0
2016-04-03T02:56:05.655Z,0
2016-04-03T02:57:05.641Z,0
2016-04-03T02:58:05.644Z,0
2016-04-03T02:59:05.647Z,0
2016-04-03T03:00:05.650Z,0
2016-04-03T03:01:05.652Z,0
2016-04-03T03:02:05.655Z,0
2016-04-03T03:03:05.657Z,0
2016-04-03T03:04:05.676Z,0
2016-04-03T03:05:05.663Z,0
2016-04-03T03:06:05.634Z,0
2016-04-03T03:07:05.637Z,0
2016-04-03T03:08:05.655Z,0
2016-04-03T03:09:05.642Z,0
2016-04-03T03:10:05.645Z,0
2016-04-03T03:11:05.632Z,0
2016-04-03T03:12:05.651Z,0
2016-04-03T03:13:05.653Z,0
2016-04-03T03:14:05.640Z,0
2016-04-03T03:15:05.658Z,0
2016-04-03T03:16:05.645Z,0
2016-04-03T03:17:05.648Z,0
2016-04-03T03:18:05.650Z,0
2016-04-03T03:19:05.654Z,0
2016-04-03T03:20:05.672Z,0
2016-04-03T03:21:05.644Z,0
2016-04-03T03:22:05.662Z,0
2016-04-03T03:23:05.649Z,0
2016-04-03T03:24:05.652Z,0
2016-04-03T03:25:05.638Z,0
2016-04-03T03:26:05.641Z,0
2016-04-03T03:27:05.644Z,0
2016-04-03T03:28:05.646Z,0
2016-04-03T03:29:05.649Z,0
2016-04-03T03:30:05.652Z,0
2016-04-03T03:31:05.654Z,0
2016-04-03T03:32:05.643Z,0
2016-04-03T03:33:05.645Z,0
2016-04-03T03:34:05.632Z,0
2016-04-03T03:35:05.651Z,0
2016-04-03T03:36:05.637Z,0
2016-04-03T03:37:05.640Z,0
2016-04-03T03:38:05.658Z,0
2016-04-03T03:39:05.629Z,0
2016-04-03T03:40:05.648Z,0
2016-04-03T03:41:05.634Z,0
2016-04-03T03:42:05.637Z,0
2016-04-03T03:43:05.639Z,0
2016-04-03T03:44:05.642Z,0
2016-04-03T03:45:05.645Z,0
2016-04-03T03:46:05.633Z,0
2016-04-03T03:47:05.636Z,0
2016-04-03T03:48:05.638Z,0
2016-04-03T03:49:05.641Z,0
2016-04-03T03:50:05.486Z,0
2016-04-03T03:51:05.661Z,0
2016-04-03T03:52:05.664Z,0
2016-04-03T03:53:05.651Z,0
2016-04-03T03:54:05.654Z,0
2016-04-03T03:55:05.641Z,0
2016-04-03T03:56:05.644Z,0
2016-04-03T03:57:05.663Z,0
2016-04-03T03:58:05.650Z,0
2016-04-03T03:59:05.699Z,0
2016-04-03T04:00:05.639Z,0
2016-04-03T04:01:05.626Z,0
2016-04-03T04:02:05.644Z,0
2016-04-03T04:03:05.647Z,0
2016-04-03T04:04:05.634Z,0
2016-04-03T04:05:05.637Z,0
2016-04-03T04:06:05.654Z,0
2016-04-03T04:07:05.627Z,0
2016-04-03T04:08:05.660Z,0
2016-04-03T04:09:05.632Z,0
2016-04-03T04:10:05.651Z,0
2016-04-03T04:11:05.481Z,0
2016-04-03T04:12:05.640Z,0
2016-04-03T04:13:05.642Z,0
2016-04-03T04:14:05.645Z,0
2016-04-03T04:15:05.633Z,0
2016-04-03T04:16:05.650Z,0
2016-04-03T04:17:05.653Z,0
2016-04-03T04:18:05.640Z,0
2016-04-03T04:19:05.643Z,0
2016-04-03T04:20:05.630Z,0
2016-04-03T04:21:05.649Z,0
2016-04-03T04:22:05.652Z,0
2016-04-03T04:23:05.655Z,0
2016-04-03T04:24:05.641Z,0
2016-04-03T04:25:05.660Z,0
2016-04-03T04:26:05.646Z,0
2016-04-03T04:27:05.649Z,0
2016-04-03T04:28:05.652Z,0
2016-04-03T04:29:05.623Z,0
2016-04-03T04:30:05.642Z,0
2016-04-03T04:31:05.644Z,0
2016-04-03T04:32:05.647Z,0
2016-04-03T04:33:05.635Z,0
2016-04-03T04:34:05.652Z,0
2016-04-03T04:35:05.624Z,0
2016-04-03T04:36:05.642Z,0
2016-04-03T04:37:05.645Z,0
2016-04-03T04:38:05.632Z,0
2016-04-03T04:39:05.650Z,0
2016-04-03T04:40:05.637Z,0
2016-04-03T04:41:05.655Z,4
2016-04-03T04:42:05.642Z,4
2016-04-03T04:43:05.645Z,4
2016-04-03T04:44:05.632Z,4
2016-04-03T04:45:05.635Z,4
2016-04-03T04:46:05.637Z,4
2016-04-03T04:47:05.640Z,8
2016-04-03T04:48:05.642Z,8
2016-04-03T04:49:05.489Z,8
2016-04-03T04:50:05.633Z,8
2016-04-03T04:51:05.636Z,12
2016-04-03T04:52:05.653Z,12
2016-04-03T04:53:05.688Z,16
2016-04-03T04:54:05.658Z,16
2016-04-03T04:55:05.630Z,20
2016-04-03T04:56:05.633Z,20
2016-04-03T04:57:05.635Z,24
2016-04-03T04:58:05.639Z,24
2016-04-03T04:59:05.641Z,24
2016-04-03T05:00:05.644Z,28
2016-04-03T05:01:05.616Z,28
2016-04-03T05:02:05.634Z,36
2016-04-03T05:03:05.621Z,40
2016-04-03T05:04:05.639Z,44
2016-04-03T05:05:05.642Z,48
2016-04-03T05:06:05.645Z,52
2016-04-03T05:07:05.648Z,56
2016-04-03T05:08:05.651Z,56
2016-04-03T05:09:05.653Z,60
2016-04-03T05:10:05.640Z,64
2016-04-03T05:11:05.642Z,64
2016-04-03T05:12:05.645Z,72
2016-04-03T05:13:05.632Z,76
2016-04-03T05:14:05.634Z,80
2016-04-03T05:15:05.626Z,84
2016-04-03T05:16:05.618Z,88
2016-04-03T05:17:05.609Z,92
2016-04-03T05:18:05.600Z,100
2016-04-03T05:19:05.593Z,104
2016-04-03T05:20:05.576Z,112
2016-04-03T05:21:05.575Z,120
2016-04-03T05:22:05.558Z,128
2016-04-03T05:23:05.587Z,136
2016-04-03T05:24:05.556Z,144
2016-04-03T05:25:05.557Z,156
2016-04-03T05:26:05.574Z,164
2016-04-03T05:27:05.559Z,172
2016-04-03T05:28:05.577Z,180
2016-04-03T05:29:05.562Z,188
2016-04-03T05:30:05.595Z,196
2016-04-03T05:31:05.566Z,200
2016-04-03T05:32:05.552Z,208
2016-04-03T05:33:05.571Z,212
2016-04-03T05:34:05.557Z,220
2016-04-03T05:35:05.559Z,220
2016-04-03T05:36:05.547Z,224
2016-04-03T05:37:05.549Z,228
2016-04-03T05:38:05.551Z,236
2016-04-03T05:39:05.538Z,240
2016-04-03T05:40:05.571Z,244
2016-04-03T05:41:05.543Z,248
2016-04-03T05:42:05.562Z,256
2016-04-03T05:43:05.548Z,264
2016-04-03T05:44:05.536Z,272
2016-04-03T05:45:05.553Z,276
2016-04-03T05:46:05.541Z,284
2016-04-03T05:47:05.559Z,292
2016-04-03T05:48:05.546Z,296
2016-04-03T05:49:05.549Z,304
2016-04-03T05:50:05.552Z,316
2016-04-03T05:51:05.555Z,320
2016-04-03T05:52:05.557Z,336
2016-04-03T05:53:05.575Z,344
2016-04-03T05:54:05.563Z,356
2016-04-03T05:55:05.597Z,368
2016-04-03T05:56:05.552Z,372
2016-04-03T05:57:05.555Z,384
2016-04-03T05:58:11.120Z,396
2016-04-03T05:59:05.545Z,404
2016-04-03T06:00:05.579Z,416
2016-04-03T06:01:05.550Z,424
2016-04-03T06:02:05.537Z,436
2016-04-03T06:03:05.555Z,452
2016-04-03T06:04:05.543Z,468
2016-04-03T06:05:05.546Z,488
2016-04-03T06:06:05.548Z,520
2016-04-03T06:07:05.551Z,548
2016-04-03T06:08:05.538Z,572
2016-04-03T06:09:05.540Z,592
2016-04-03T06:10:05.543Z,600
2016-04-03T06:11:05.546Z,600
2016-04-03T06:12:05.548Z,596
2016-04-03T06:13:05.551Z,600
2016-04-03T06:14:05.570Z,600
2016-04-03T06:15:05.540Z,604
2016-04-03T06:16:05.559Z,612
2016-04-03T06:17:05.546Z,620
2016-04-03T06:18:05.548Z,640
2016-04-03T06:19:05.551Z,664
2016-04-03T06:20:05.554Z,708
2016-04-03T06:21:05.573Z,756
2016-04-03T06:22:05.856Z,816
2016-04-03T06:23:05.562Z,880
2016-04-03T06:24:05.534Z,948
2016-04-03T06:25:05.553Z,1020
2016-04-03T06:26:05.383Z,1088
2016-04-03T06:27:05.542Z,1144
2016-04-03T06:28:05.545Z,1196
2016-04-03T06:29:05.547Z,1240
2016-04-03T06:30:05.550Z,1272
2016-04-03T06:31:05.553Z,1292
2016-04-03T06:32:05.571Z,1304
2016-04-03T06:33:05.558Z,1308
2016-04-03T06:34:05.561Z,1328
2016-04-03T06:35:05.548Z,1356
2016-04-03T06:36:05.566Z,1400
2016-04-03T06:37:05.538Z,1440
2016-04-03T06:38:05.540Z,1484
2016-04-03T06:39:05.559Z,1536
2016-04-03T06:40:05.562Z,1584
2016-04-03T06:41:05.548Z,1644
2016-04-03T06:42:05.551Z,1712
2016-04-03T06:43:05.554Z,1800
2016-04-03T06:44:05.556Z,1904
2016-04-03T06:45:05.559Z,2028
2016-04-03T06:46:05.546Z,2164
2016-04-03T06:47:05.565Z,2304
2016-04-03T06:48:05.552Z,2424
2016-04-03T06:49:05.570Z,2520
2016-04-03T06:50:05.557Z,2596
2016-04-03T06:51:05.544Z,2652
2016-04-03T06:52:05.547Z,2688
2016-04-03T06:53:05.550Z,2712
2016-04-03T06:54:05.599Z,2736
2016-04-03T06:55:05.555Z,2760
2016-04-03T06:56:05.542Z,2784
2016-04-03T06:57:05.545Z,2820
2016-04-03T06:58:05.548Z,2860
2016-04-03T06:59:05.550Z,2904
2016-04-03T07:00:05.553Z,2936
2016-04-03T07:01:05.571Z,2944
2016-04-03T07:02:05.558Z,2944
2016-04-03T07:03:05.577Z,2948
2016-04-03T07:04:05.563Z,2948
2016-04-03T07:05:05.566Z,2968
2016-04-03T07:06:05.553Z,2984
2016-04-03T07:07:05.571Z,3008
2016-04-03T07:08:05.558Z,3016
2016-04-03T07:09:05.561Z,3008
2016-04-03T07:10:05.548Z,3000
2016-04-03T07:11:05.552Z,3008
2016-04-03T07:12:05.554Z,3016
2016-04-03T07:13:05.557Z,3044
2016-04-03T07:14:05.544Z,3056
2016-04-03T07:15:05.563Z,3068
2016-04-03T07:16:05.565Z,3072
2016-04-03T07:17:05.552Z,3064
2016-04-03T07:18:05.571Z,3084
2016-04-03T07:19:05.557Z,3128
2016-04-03T07:20:05.560Z,3200
2016-04-03T07:21:05.563Z,3288
2016-04-03T07:22:05.565Z,3388
2016-04-03T07:23:05.568Z,3492
2016-04-03T07:24:05.570Z,3568
2016-04-03T07:25:05.573Z,3660
2016-04-03T07:26:05.576Z,3756
2016-04-03T07:27:05.563Z,3900
2016-04-03T07:28:05.566Z,4056
2016-04-03T07:29:05.569Z,4280
2016-04-03T07:30:05.571Z,4628
2016-04-03T07:31:05.574Z,5044
2016-04-03T07:32:05.577Z,5584
2016-04-03T07:33:05.611Z,5680
2016-04-03T07:34:05.598Z,6004
2016-04-03T07:35:05.586Z,6416
2016-04-03T07:36:05.572Z,6712
2016-04-03T07:37:05.591Z,7520
2016-04-03T07:38:05.578Z,8700
2016-04-03T07:39:05.580Z,9224
2016-04-03T07:40:05.599Z,9800
2016-04-03T07:41:05.601Z,11440
2016-04-03T07:42:05.572Z,13220
2016-04-03T07:43:05.575Z,13424
2016-04-03T07:44:05.593Z,12932
2016-04-03T07:45:05.580Z,12652
2016-04-03T07:46:05.583Z,14920
2016-04-03T07:47:05.585Z,13652
2016-04-03T07:48:05.588Z,13584
2016-04-03T07:49:05.590Z,12532
2016-04-03T07:50:05.609Z,14564
2016-04-03T07:51:05.596Z,17016
2016-04-03T07:52:05.584Z,17060
2016-04-03T07:53:05.618Z,17420
2016-04-03T07:54:05.589Z,16608
2016-04-03T07:55:05.592Z,15188
2016-04-03T07:56:05.610Z,15844
2016-04-03T07:57:05.597Z,17344
2016-04-03T07:58:05.615Z,19392
2016-04-03T07:59:05.603Z,19136
2016-04-03T08:00:05.605Z,19584
2016-04-03T08:01:05.623Z,18052
2016-04-03T08:02:05.625Z,17164
2016-04-03T08:03:05.614Z,14400
2016-04-03T08:04:05.616Z,12440
2016-04-03T08:05:05.619Z,11728
2016-04-03T08:06:05.637Z,11416
2016-04-03T08:07:05.608Z,11220
2016-04-03T08:08:05.642Z,10892
2016-04-03T08:09:05.629Z,10524
2016-04-03T08:10:05.632Z,10248
2016-04-03T08:11:05.635Z,10012
2016-04-03T08:12:05.653Z,9852
2016-04-03T08:13:05.655Z,10012
2016-04-03T08:14:05.658Z,9988
2016-04-03T08:15:05.646Z,10184
2016-04-03T08:16:05.648Z,10376
2016-04-03T08:17:05.651Z,10500
2016-04-03T08:18:05.668Z,10552
2016-04-03T08:19:05.671Z,10628
2016-04-03T08:20:05.674Z,10604
2016-04-03T08:21:05.661Z,10544
2016-04-03T08:22:05.696Z,10372
2016-04-03T08:23:05.682Z,10156
2016-04-03T08:24:05.685Z,9944
2016-04-03T08:25:05.670Z,9736
2016-04-03T08:26:05.691Z,9572
2016-04-03T08:27:05.693Z,9388
2016-04-03T08:28:05.696Z,9224
2016-04-03T08:29:05.699Z,9096
2016-04-03T08:30:05.701Z,8992
2016-04-03T08:31:05.720Z,8920
2016-04-03T08:32:05.707Z,8804
2016-04-03T08:33:05.725Z,8708
2016-04-03T08:34:05.728Z,8588
2016-04-03T08:35:05.731Z,8432
2016-04-03T08:36:05.749Z,8308
2016-04-03T08:37:05.736Z,8240
2016-04-03T08:38:05.738Z,8160
2016-04-03T08:39:05.757Z,8104
2016-04-03T08:40:05.744Z,8080
2016-04-03T08:41:05.762Z,8024
2016-04-03T08:42:05.749Z,8028
2016-04-03T08:43:05.752Z,7964
2016-04-03T08:44:05.771Z,7888
2016-04-03T08:45:05.757Z,7828
2016-04-03T08:46:05.776Z,7772
2016-04-03T08:47:05.793Z,7724
2016-04-03T08:48:05.781Z,7688
2016-04-03T08:49:05.799Z,7660
2016-04-03T08:50:05.786Z,7628
2016-04-03T08:51:05.804Z,7544
2016-04-03T08:52:05.807Z,7492
2016-04-03T08:53:05.809Z,7424
2016-04-03T08:54:05.812Z,7380
2016-04-03T08:55:05.815Z,7352
2016-04-03T08:56:05.817Z,7324
2016-04-03T08:57:05.837Z,7280
2016-04-03T08:58:05.823Z,7220
2016-04-03T08:59:05.857Z,7176
2016-04-03T09:00:05.826Z,7132
2016-04-03T09:01:05.828Z,7076
2016-04-03T09:02:05.831Z,7048
2016-04-03T09:03:05.867Z,7004
2016-04-03T09:04:05.855Z,6980
2016-04-03T09:05:05.858Z,6940
2016-04-03T09:06:05.861Z,6912
2016-04-03T09:07:05.878Z,6880
2016-04-03T09:08:05.724Z,6860
2016-04-03T09:09:05.873Z,6828
2016-04-03T09:10:05.876Z,6784
2016-04-03T09:11:05.879Z,6708
2016-04-03T09:12:05.896Z,6648
2016-04-03T09:13:05.884Z,6620
2016-04-03T09:14:05.901Z,6616
2016-04-03T09:15:05.889Z,6600
2016-04-03T09:16:05.923Z,6572
2016-04-03T09:17:05.895Z,6480
2016-04-03T09:18:05.929Z,6396
2016-04-03T09:19:05.915Z,6396
2016-04-03T09:20:05.918Z,6340
2016-04-03T09:21:05.953Z,6264
2016-04-03T09:22:05.923Z,6256
2016-04-03T09:23:05.926Z,6260
2016-04-03T09:24:05.944Z,6228
2016-04-03T09:25:05.931Z,6204
2016-04-03T09:26:05.949Z,6184
2016-04-03T09:27:05.952Z,6164
2016-04-03T09:28:05.955Z,6196
2016-04-03T09:29:05.974Z,6196
2016-04-03T09:30:05.961Z,6172
2016-04-03T09:31:05.963Z,6136
2016-04-03T09:32:05.966Z,6116
2016-04-03T09:33:05.968Z,6096
2016-04-03T09:34:05.988Z,6072
2016-04-03T09:35:05.974Z,6044
2016-04-03T09:36:05.977Z,6012
2016-04-03T09:37:05.995Z,6020
2016-04-03T09:38:05.999Z,6016
2016-04-03T09:39:06.002Z,6000
2016-04-03T09:40:06.004Z,5984
2016-04-03T09:41:06.007Z,5960
2016-04-03T09:42:06.026Z,5924
2016-04-03T09:43:06.012Z,5868
2016-04-03T09:44:06.015Z,5860
2016-04-03T09:45:06.018Z,5888
2016-04-03T09:46:06.021Z,5912
2016-04-03T09:47:06.039Z,5912
2016-04-03T09:48:06.026Z,5892
2016-04-03T09:49:06.029Z,5872
2016-04-03T09:50:06.047Z,5888
2016-04-03T09:51:06.034Z,5912
2016-04-03T09:52:06.053Z,5912
2016-04-03T09:53:06.072Z,5900
2016-04-03T09:54:06.059Z,5920
2016-04-03T09:55:06.045Z,5920
2016-04-03T09:56:06.063Z,5904
2016-04-03T09:57:06.066Z,5896
2016-04-03T09:58:06.069Z,5896
2016-04-03T09:59:06.071Z,5864
2016-04-03T10:00:06.074Z,5840
2016-04-03T10:01:06.108Z,5828
2016-04-03T10:02:06.147Z,5780
2016-04-03T10:03:05.962Z,5792
2016-04-03T10:04:05.957Z,5788
2016-04-03T10:05:06.854Z,5788
2016-04-03T10:06:07.858Z,5760
2016-04-03T10:07:06.109Z,5732
2016-04-03T10:08:06.127Z,5724
2016-04-03T10:09:06.114Z,5696
2016-04-03T10:10:06.132Z,5704
2016-04-03T10:11:06.119Z,5684
2016-04-03T10:12:06.123Z,5692
2016-04-03T10:13:06.125Z,5700
2016-04-03T10:14:06.143Z,5644
2016-04-03T10:15:06.131Z,5576
2016-04-03T10:16:06.133Z,5544
2016-04-03T10:17:06.136Z,5468
2016-04-03T10:18:05.997Z,5396
2016-04-03T10:19:06.156Z,5340
2016-04-03T10:20:06.144Z,5292
2016-04-03T10:21:06.178Z,5240
2016-04-03T10:22:06.149Z,5200
2016-04-03T10:23:06.183Z,5160
2016-04-03T10:24:06.170Z,5112
2016-04-03T10:25:06.189Z,5108
2016-04-03T10:26:06.175Z,5132
2016-04-03T10:27:06.178Z,5160
2016-04-03T10:28:06.165Z,5220
2016-04-03T10:29:06.183Z,5268
2016-04-03T10:30:06.186Z,5368
2016-04-03T10:31:06.189Z,5456
2016-04-03T10:32:06.208Z,5572
2016-04-03T10:33:06.194Z,5624
2016-04-03T10:34:06.213Z,5660
2016-04-03T10:35:06.215Z,5696
2016-04-03T10:36:06.218Z,5756
2016-04-03T10:37:06.220Z,5824
2016-04-03T10:38:06.207Z,5852
2016-04-03T10:39:06.226Z,5804
2016-04-03T10:40:06.229Z,5944
2016-04-03T10:41:06.232Z,6000
2016-04-03T10:42:06.234Z,6068
2016-04-03T10:43:06.237Z,6012
2016-04-03T10:44:06.240Z,5848
2016-04-03T10:45:06.243Z,5900
2016-04-03T10:46:06.245Z,6000
2016-04-03T10:47:06.264Z,6064
2016-04-03T10:48:06.251Z,6032
2016-04-03T10:49:06.253Z,6068
2016-04-03T10:50:06.256Z,6052
2016-04-03T10:51:06.258Z,6072
2016-04-03T10:52:06.277Z,6052
2016-04-03T10:53:06.279Z,6040
2016-04-03T10:54:06.266Z,6116
2016-04-03T10:55:06.285Z,6140
2016-04-03T10:56:06.272Z,6236
2016-04-03T10:57:06.275Z,6200
2016-04-03T10:58:06.277Z,6208
2016-04-03T10:59:06.296Z,6276
2016-04-03T11:00:06.313Z,6416
2016-04-03T11:01:06.285Z,6460
2016-04-03T11:02:06.303Z,6464
2016-04-03T11:03:06.321Z,6460
2016-04-03T11:04:06.309Z,6452
2016-04-03T11:05:06.312Z,6452
2016-04-03T11:06:06.315Z,6476
2016-04-03T11:07:06.318Z,6540
2016-04-03T11:08:06.343Z,6612
2016-04-03T11:09:06.329Z,6636
2016-04-03T11:10:06.332Z,6688
2016-04-03T11:11:06.351Z,6740
2016-04-03T11:12:06.338Z,6768
2016-04-03T11:13:06.341Z,6812
2016-04-03T11:14:06.359Z,6852
2016-04-03T11:15:06.346Z,6880
2016-04-03T11:16:06.364Z,6892
2016-04-03T11:17:06.351Z,6884
2016-04-03T11:18:06.353Z,6904
2016-04-03T11:19:06.356Z,6884
2016-04-03T11:20:06.359Z,6860
2016-04-03T11:21:06.362Z,6792
2016-04-03T11:22:06.364Z,6800
2016-04-03T11:23:06.367Z,6752
2016-04-03T11:24:06.402Z,6720
2016-04-03T11:25:06.372Z,6648
2016-04-03T11:26:06.391Z,6572
2016-04-03T11:27:06.410Z,6492
2016-04-03T11:28:06.397Z,6412
2016-04-03T11:29:06.400Z,6372
2016-04-03T11:30:06.418Z,6300
2016-04-03T11:31:06.405Z,6196
2016-04-03T11:32:06.408Z,6116
2016-04-03T11:33:06.410Z,6056
2016-04-03T11:34:06.413Z,6012
2016-04-03T11:35:06.431Z,5960
2016-04-03T11:36:06.418Z,5892
2016-04-03T11:37:06.421Z,5860
2016-04-03T11:38:06.440Z,5804
2016-04-03T11:39:06.427Z,5784
2016-04-03T11:40:06.429Z,5708
2016-04-03T11:41:06.432Z,5632
2016-04-03T11:42:06.450Z,5624
2016-04-03T11:43:06.453Z,5616
2016-04-03T11:44:06.439Z,5520
2016-04-03T11:45:06.473Z,5524
2016-04-03T11:46:06.461Z,5464
2016-04-03T11:47:06.448Z,5464
2016-04-03T11:48:06.498Z,5440
2016-04-03T11:49:06.469Z,5444
2016-04-03T11:50:06.456Z,5440
2016-04-03T11:51:06.490Z,5408
2016-04-03T11:52:06.478Z,5376
2016-04-03T11:53:06.480Z,5344
2016-04-03T11:54:06.530Z,5276
2016-04-03T11:55:06.501Z,5188
2016-04-03T11:56:06.503Z,5100
2016-04-03T11:57:06.522Z,5028
2016-04-03T11:58:06.508Z,4988
2016-04-03T11:59:06.496Z,4928
2016-04-03T12:00:06.513Z,4916
2016-04-03T12:01:06.516Z,4880
2016-04-03T12:02:06.536Z,4748
2016-04-03T12:03:06.522Z,4676
2016-04-03T12:04:06.524Z,4656
2016-04-03T12:05:06.528Z,4648
2016-04-03T12:06:06.547Z,4612
2016-04-03T12:07:06.533Z,4500
2016-04-03T12:08:06.535Z,4620
2016-04-03T12:09:06.554Z,4592
2016-04-03T12:10:06.557Z,4600
2016-04-03T12:11:06.560Z,4556
2016-04-03T12:12:06.547Z,4404
2016-04-03T12:13:06.549Z,4448
2016-04-03T12:14:06.568Z,4436
2016-04-03T12:15:06.554Z,4344
2016-04-03T12:16:06.557Z,4272
2016-04-03T12:17:06.576Z,4292
2016-04-03T12:18:06.563Z,4260
2016-04-03T12:19:06.581Z,4220
2016-04-03T12:20:06.599Z,4120
2016-04-03T12:21:06.571Z,4056
2016-04-03T12:22:06.573Z,4072
2016-04-03T12:23:06.592Z,4016
2016-04-03T12:24:06.594Z,4000
2016-04-03T12:25:06.628Z,4004
2016-04-03T12:26:06.600Z,4016
2016-04-03T12:27:06.602Z,4136
2016-04-03T12:28:06.637Z,4140
2016-04-03T12:29:06.624Z,4204
2016-04-03T12:30:06.611Z,4208
2016-04-03T12:31:06.645Z,4172
2016-04-03T12:32:06.616Z,4200
2016-04-03T12:33:06.619Z,4312
2016-04-03T12:34:06.638Z,4332
2016-04-03T12:35:06.624Z,4344
2016-04-03T12:36:06.659Z,4328
2016-04-03T12:37:06.661Z,4320
2016-04-03T12:38:06.648Z,4284
2016-04-03T12:39:06.635Z,4200
2016-04-03T12:40:06.653Z,4164
2016-04-03T12:41:06.641Z,4116
2016-04-03T12:42:06.644Z,4128
2016-04-03T12:43:06.677Z,4024
2016-04-03T12:44:06.665Z,4044
2016-04-03T12:45:06.668Z,4032
2016-04-03T12:46:06.685Z,3980
2016-04-03T12:47:06.673Z,4012
2016-04-03T12:48:06.676Z,4032
2016-04-03T12:49:06.725Z,4020
2016-04-03T12:50:06.681Z,3944
2016-04-03T12:51:06.684Z,3916
2016-04-03T12:52:06.687Z,3864
2016-04-03T12:53:06.689Z,3840
2016-04-03T12:54:06.692Z,3820
2016-04-03T12:55:06.709Z,3792
2016-04-03T12:56:06.697Z,3784
2016-04-03T12:57:06.700Z,3744
2016-04-03T12:58:06.734Z,3736
2016-04-03T12:59:06.720Z,3732
2016-04-03T13:00:06.723Z,3692
2016-04-03T13:01:06.711Z,3684
2016-04-03T13:02:06.729Z,3708
2016-04-03T13:03:06.716Z,3736
2016-04-03T13:04:06.561Z,3764
2016-04-03T13:05:06.722Z,3800
2016-04-03T13:06:06.724Z,3820
2016-04-03T13:07:06.742Z,3812
2016-04-03T13:08:06.745Z,3836
2016-04-03T13:09:06.747Z,3840
2016-04-03T13:10:06.735Z,3820
2016-04-03T13:11:06.738Z,3768
2016-04-03T13:12:06.756Z,3700
2016-04-03T13:13:06.743Z,3632
2016-04-03T13:14:06.746Z,3608
2016-04-03T13:15:06.749Z,3584
2016-04-03T13:16:06.766Z,3568
2016-04-03T13:17:06.754Z,3576
2016-04-03T13:18:06.772Z,3576
2016-04-03T13:19:06.774Z,3548
2016-04-03T13:20:06.777Z,3516
2016-04-03T13:21:06.796Z,3520
2016-04-03T13:22:06.782Z,3540
2016-04-03T13:23:06.784Z,3564
2016-04-03T13:24:06.788Z,3576
2016-04-03T13:25:06.790Z,3592
2016-04-03T13:26:06.793Z,3648
2016-04-03T13:27:06.796Z,3720
2016-04-03T13:28:06.798Z,3752
2016-04-03T13:29:06.832Z,3756
2016-04-03T13:30:06.819Z,3760
2016-04-03T13:31:06.807Z,3772
2016-04-03T13:32:06.809Z,3804
2016-04-03T13:33:06.827Z,3860
2016-04-03T13:34:06.815Z,3924
2016-04-03T13:35:06.880Z,3912
2016-04-03T13:36:06.819Z,3868
2016-04-03T13:37:06.838Z,3836
2016-04-03T13:38:06.841Z,3744
2016-04-03T13:39:06.828Z,3704
2016-04-03T13:40:06.831Z,3636
2016-04-03T13:41:06.850Z,3632
2016-04-03T13:42:06.836Z,3580
2016-04-03T13:43:06.839Z,3664
2016-04-03T13:44:06.841Z,3660
2016-04-03T13:45:06.860Z,3652
2016-04-03T13:46:06.847Z,3484
2016-04-03T13:47:06.849Z,3472
2016-04-03T13:48:06.868Z,3476
2016-04-03T13:49:06.855Z,3376
2016-04-03T13:50:06.857Z,3240